Time;durP1;ratioP1;P1;durP2;ratioP2;P2;SDS_P1;SDS_P2;PMS_P1;PMS_P2;Temp;Humidity;BMP_temperature;BMP_pressure;BME280_temperature;BME280_humidity;BME280_pressure;Samples;Min_cycle;Max_cycle;Signal;HPM_P1;HPM_P2
2023/05/05 00:02:38;;;;;;;21.00;16.70;;;;;;;14.42;100.00;148702.84;5070295;28;20196;-52
2023/05/05 00:08:35;;;;;;;20.07;15.60;;;;;;;14.49;100.00;148720.47;4449225;27;19968762;-51
2023/05/05 00:17:34;;;;;;;19.20;14.57;;;;;;;14.53;100.00;148730.56;5146844;27;20213;-52
2023/05/05 00:20:36;;;;;;;18.47;14.67;;;;;;;14.51;100.00;148725.53;5146691;27;20231;-52
2023/05/05 00:23:06;;;;;;;17.73;14.30;;;;;;;14.52;100.00;148726.78;5145273;27;20209;-51
2023/05/05 00:35:10;;;;;;;16.27;13.33;;;;;;;14.63;100.00;148753.28;5145520;27;20208;-50
2023/05/05 00:37:59;;;;;;;20.03;13.77;;;;;;;14.64;100.00;148757.06;5147643;27;20193;-51
2023/05/05 00:41:08;;;;;;;19.47;13.37;;;;;;;14.61;100.00;148748.22;5143349;27;20206;-52
2023/05/05 00:47:43;;;;;;;20.77;14.83;;;;;;;14.61;100.00;148749.47;5143862;27;20316;-52
2023/05/05 00:50:43;;;;;;;18.80;14.23;;;;;;;14.66;100.00;148760.84;5148147;27;20193;-52
2023/05/05 01:00:13;;;;;;;19.37;14.83;;;;;;;14.61;100.00;148748.22;5147283;27;20208;-53
2023/05/05 01:09:54;;;;;;;18.37;14.50;;;;;;;14.50;100.00;148723.00;5146806;27;20288;-51
2023/05/05 01:22:28;;;;;;;22.27;14.80;;;;;;;14.49;100.00;148719.19;5130702;27;20190;-51
2023/05/05 01:26:01;;;;;;;18.50;14.27;;;;;;;14.47;100.00;148715.41;5130209;27;20687;-51
2023/05/05 01:32:12;;;;;;;19.33;14.40;;;;;;;14.49;100.00;148719.19;5128904;27;20205;-50
2023/05/05 01:35:13;;;;;;;22.00;15.10;;;;;;;14.53;100.00;148730.56;5132893;27;20194;-52
2023/05/05 01:37:59;;;;;;;18.90;14.53;;;;;;;14.58;100.00;148740.63;5130508;27;20286;-53
2023/05/05 01:44:13;;;;;;;19.00;14.53;;;;;;;14.63;100.00;148753.28;5128236;27;20198;-50
2023/05/05 01:47:15;;;;;;;18.53;14.90;;;;;;;14.63;100.00;148754.53;5132459;27;20217;-52
2023/05/05 01:50:37;;;;;;;20.60;15.00;;;;;;;14.59;100.00;148744.44;5132396;27;20699;-53
2023/05/05 01:56:52;;;;;;;;;;;;;;;;;;;;;
2023/05/05 01:59:43;;;;;;;21.17;14.17;;;;;;;14.53;100.00;148729.31;5127145;27;20208;-52
2023/05/05 02:05:52;;;;;;;17.63;13.23;;;;;;;14.64;100.00;148755.78;5130493;27;20358;-52
2023/05/05 02:08:51;;;;;;;16.27;13.73;;;;;;;14.56;100.00;148736.84;5127268;27;20225;-51
2023/05/05 02:11:38;;;;;;;20.70;14.73;;;;;;;14.50;100.00;148723.00;5127292;27;20233;-52
2023/05/05 02:17:50;;;;;;;18.63;13.63;;;;;;;14.55;100.00;148733.09;5130959;27;20201;-52
2023/05/05 02:20:51;;;;;;;16.40;13.43;;;;;;;14.52;100.00;148726.78;5127827;27;20252;-51
2023/05/05 02:23:54;;;;;;;18.20;13.70;;;;;;;14.62;100.00;148752.00;5126288;27;20242;-51
2023/05/05 02:29:49;;;;;;;16.00;11.93;;;;;;;14.64;100.00;148757.06;5113355;27;20729;-52
2023/05/05 02:32:30;;;;;;;14.03;12.07;;;;;;;14.63;100.00;148754.53;5110385;28;20221;-53
2023/05/05 02:35:15;;;;;;;16.43;12.03;;;;;;;14.56;100.00;148736.84;5110706;28;20628;-52
2023/05/05 02:38:00;;;;;;;16.30;11.83;;;;;;;14.59;100.00;148744.44;5109229;28;20602;-52
2023/05/05 02:40:42;;;;;;;11.97;10.77;;;;;;;14.62;100.00;148750.75;5108802;28;20294;-51
2023/05/05 02:43:29;;;;;;;13.40;11.47;;;;;;;14.64;100.00;148757.06;5110308;28;20264;-52
2023/05/05 02:46:16;;;;;;;12.23;10.93;;;;;;;14.61;100.00;148749.47;5110014;28;20226;-54
2023/05/05 02:48:48;;;;;;;11.50;10.40;;;;;;;14.58;100.00;148741.91;5112771;27;20230;-51
2023/05/05 02:51:32;;;;;;;13.17;11.70;;;;;;;14.56;100.00;148735.63;5108661;28;20225;-53
2023/05/05 02:54:14;;;;;;;12.00;10.60;;;;;;;14.60;100.00;148745.69;5108663;28;20309;-52
2023/05/05 02:57:11;;;;;;;11.93;10.63;;;;;;;14.57;100.00;148738.09;5109873;28;20226;-51
2023/05/05 02:59:50;;;;;;;14.93;10.67;;;;;;;14.60;100.00;148745.69;5106089;28;20222;-52
2023/05/05 03:02:26;;;;;;;14.17;12.03;;;;;;;14.58;100.00;148741.91;5126060;27;20214;-51
2023/05/05 03:05:16;;;;;;;12.87;11.57;;;;;;;14.65;100.00;148758.31;5126432;27;20231;-52
2023/05/05 03:07:55;;;;;;;17.23;12.07;;;;;;;14.61;100.00;148749.47;5126304;27;20646;-52
2023/05/05 03:10:32;;;;;;;12.87;11.03;;;;;;;14.58;100.00;148740.63;5127945;27;20228;-53
2023/05/05 03:13:33;;;;;;;12.87;11.53;;;;;;;14.53;100.00;148730.56;5127187;27;20336;-54
2023/05/05 03:16:13;;;;;;;18.00;12.37;;;;;;;14.48;100.00;148717.94;5109768;28;20673;-53
2023/05/05 03:18:42;;;;;;;13.83;12.40;;;;;;;14.49;100.00;148719.19;5107876;28;20602;-52
2023/05/05 03:21:22;;;;;;;16.87;12.67;;;;;;;14.45;100.00;148710.38;5126005;27;20242;-52
2023/05/05 03:24:24;;;;;;;17.40;13.07;;;;;;;14.43;100.00;148704.09;5128684;27;20773;-52
2023/05/05 03:27:07;;;;;;;15.07;12.23;;;;;;;14.36;100.00;148686.38;5130269;27;20284;-54
2023/05/05 03:30:07;;;;;;;14.67;13.03;;;;;;;14.38;100.00;148692.69;5131003;27;20198;-53
2023/05/05 03:33:10;;;;;;;18.57;13.90;;;;;;;14.39;100.00;148695.25;5130947;27;20700;-52
2023/05/05 03:35:59;;;;;;;15.53;13.17;;;;;;;14.34;100.00;148681.31;5130103;27;20284;-52
2023/05/05 03:38:53;;;;;;;23.47;14.47;;;;;;;14.35;100.00;148685.09;5128664;27;20588;-51
2023/05/05 03:41:31;;;;;;;18.37;14.03;;;;;;;14.25;100.00;148658.63;5127054;27;20274;-52
2023/05/05 03:44:14;;;;;;;17.47;13.57;;;;;;;14.40;100.00;148697.78;5129695;27;20690;-52
2023/05/05 03:46:55;;;;;;;16.90;13.10;;;;;;;14.27;100.00;148664.94;5129279;27;20270;-52
2023/05/05 03:49:33;;;;;;;15.70;12.17;;;;;;;14.23;100.00;148654.84;5129277;27;20241;-52
2023/05/05 03:52:03;;;;;;;15.33;11.87;;;;;;;14.20;100.00;148646.03;5118419;27;20309;-51
2023/05/05 03:54:58;;;;;;;13.13;10.53;;;;;;;14.17;100.00;148639.72;5129292;27;20546;-52
2023/05/05 03:57:56;;;;;;;11.80;10.47;;;;;;;14.07;100.00;148615.78;5107477;28;20234;-53
2023/05/05 04:03:39;;;;;;;17.00;11.30;;;;;;;14.12;100.00;148628.34;5107022;28;20690;-53
2023/05/05 04:06:39;;;;;;;14.07;10.37;;;;;;;14.11;100.00;148625.81;5109265;28;20644;-53
2023/05/05 04:09:44;;;;;;;11.77;10.23;;;;;;;14.14;100.00;148632.16;5068984;28;20310;-52
2023/05/05 04:15:51;;;;;;;12.40;10.17;;;;;;;14.06;100.00;148611.97;5066721;28;20552;-52
2023/05/05 04:18:41;;;;;;;11.43;9.80;;;;;;;14.12;100.00;148627.09;5064937;28;20302;-52
2023/05/05 04:21:19;;;;;;;10.57;9.27;;;;;;;14.18;100.00;148642.25;5068002;28;20231;-52
2023/05/05 04:23:54;;;;;;;9.10;8.30;;;;;;;14.16;100.00;148637.19;5068177;28;20216;-52
2023/05/05 04:26:39;;;;;;;10.63;9.07;;;;;;;14.12;100.00;148628.34;5068267;28;20307;-51
2023/05/05 04:32:32;;;;;;;11.03;8.50;;;;;;;14.15;100.00;148635.94;5067281;28;20286;-53
2023/05/05 04:35:35;;;;;;;8.67;7.53;;;;;;;14.16;100.00;148637.19;5067717;28;20227;-51
2023/05/05 04:38:39;;;;;;;11.57;8.43;;;;;;;14.17;100.00;148639.72;5067957;28;20192;-50
2023/05/05 04:41:38;;;;;;;9.57;8.50;;;;;;;14.22;100.00;148651.09;5065713;28;20239;-51
2023/05/05 04:44:35;;;;;;;10.10;8.00;;;;;;;14.27;100.00;148664.94;5068385;28;20207;-53
2023/05/05 04:47:10;;;;;;;8.87;8.07;;;;;;;14.26;100.00;148661.16;5072422;28;20681;-53
2023/05/05 04:49:48;;;;;;;8.67;7.67;;;;;;;14.27;100.00;148663.66;5088793;28;20223;-53
2023/05/05 04:52:39;;;;;;;9.17;8.37;;;;;;;14.30;100.00;148672.50;5087204;28;20233;-51
2023/05/05 04:55:53;;;;;;;;;;;;;;;;;;;;;
2023/05/05 04:58:50;;;;;;;8.43;7.73;;;;;;;14.36;100.00;148686.38;5089258;28;20245;-52
2023/05/05 05:01:42;;;;;;;8.73;7.93;;;;;;;14.41;100.00;148700.31;5072110;28;20230;-52
2023/05/05 05:04:27;;;;;;;10.30;8.57;;;;;;;14.47;100.00;148714.16;5071056;28;20334;-50
2023/05/05 05:07:22;;;;;;;7.93;7.13;;;;;;;14.58;100.00;148740.63;5087281;27;20272;-50
2023/05/05 05:13:05;;;;;;;8.30;7.50;;;;;;;14.58;100.00;148740.63;5130972;27;20597;-50
2023/05/05 05:15:38;;;;;;;9.30;7.80;;;;;;;14.58;100.00;148741.91;5133468;27;20201;-52
2023/05/05 05:21:41;;;;;;;10.77;8.50;;;;;;;14.63;100.00;148753.28;5129821;27;20208;-52
2023/05/05 05:24:37;;;;;;;9.40;7.53;;;;;;;14.67;100.00;148763.38;5132762;27;20190;-52
2023/05/05 05:27:40;;;;;;;8.20;7.60;;;;;;;14.75;100.00;148784.81;5127304;27;20570;-50
2023/05/05 05:33:15;;;;;;;9.30;8.50;;;;;;;14.89;100.00;148820.16;5132496;27;20419;-52
2023/05/05 05:35:57;;;;;;;9.97;8.50;;;;;;;15.00;100.00;148846.63;5132878;27;20631;-51
2023/05/05 05:38:37;;;;;;;11.00;8.37;;;;;;;15.04;100.00;148856.69;5133223;27;20585;-50
2023/05/05 05:41:16;;;;;;;8.60;7.90;;;;;;;15.07;100.00;148863.03;5132992;27;20201;-51
2023/05/05 05:43:54;;;;;;;9.13;8.37;;;;;;;15.20;100.00;148897.09;5132767;27;20284;-52
2023/05/05 05:46:36;;;;;;;9.47;8.57;;;;;;;15.30;100.00;148921.06;5130591;27;20203;-52
2023/05/05 05:49:25;;;;;;;8.77;7.83;;;;;;;15.40;100.00;148945.03;5119885;27;20235;-51
2023/05/05 05:55:40;;;;;;;14.13;8.47;;;;;;;15.50;100.00;148970.28;5112081;28;20251;-51
2023/05/05 06:04:33;;;;;;;8.53;7.63;;;;;;;15.74;100.00;149029.66;5110964;28;20199;-52
2023/05/05 06:10:11;;;;;;;8.23;7.53;;;;;;;15.95;100.00;149083.94;5124458;27;20213;-51
2023/05/05 06:12:39;;;;;;;8.33;7.63;;;;;;;16.09;100.00;149116.78;5129112;27;20198;-51
2023/05/05 06:15:07;;;;;;;8.07;7.37;;;;;;;16.30;100.00;149169.81;5131544;27;20582;-52
2023/05/05 06:17:35;;;;;;;9.43;8.63;;;;;;;16.55;100.00;149232.97;5125300;27;20193;-53
2023/05/05 06:20:04;;;;;;;9.27;8.10;;;;;;;16.67;100.00;149263.34;5119443;27;20198;-53
2023/05/05 06:22:31;;;;;;;8.53;7.77;;;;;;;16.89;100.00;149316.38;5114903;27;20783;-51
2023/05/05 06:24:58;;;;;;;9.27;8.33;;;;;;;16.83;100.00;149301.19;5111101;28;20305;-52
2023/05/05 06:27:25;;;;;;;8.80;8.00;;;;;;;16.86;100.00;149308.78;5123695;27;20678;-53
2023/05/05 06:29:53;;;;;;;8.27;7.67;;;;;;;17.13;100.00;149377.03;5111529;28;20237;-52
2023/05/05 06:32:20;;;;;;;8.10;7.50;;;;;;;17.42;100.00;149450.31;5111566;28;20199;-53
2023/05/05 06:34:49;;;;;;;8.30;7.57;;;;;;;17.74;100.00;149528.72;5111379;28;20205;-52
2023/05/05 06:37:16;;;;;;;8.88;6.95;;;;;;;17.91;100.00;149570.47;5111669;28;20198;-53
2023/05/05 06:39:44;;;;;;;7.75;6.70;;;;;;;18.13;99.85;149627.38;5111442;28;20194;-53
2023/05/05 06:42:11;;;;;;;8.20;6.50;;;;;;;18.38;98.03;149688.09;5111585;28;20251;-52
2023/05/05 06:44:38;;;;;;;7.45;6.93;;;;;;;18.73;95.78;149775.41;5111454;28;20605;-53
2023/05/05 06:47:06;;;;;;;7.30;6.80;;;;;;;18.96;94.31;149832.34;5123890;27;20205;-52
2023/05/05 06:49:33;;;;;;;9.85;6.70;;;;;;;19.29;93.53;149915.88;5130760;27;20235;-52
2023/05/05 06:52:02;;;;;;;8.98;7.20;;;;;;;19.56;91.44;149984.25;5131466;27;20251;-53
2023/05/05 06:54:29;;;;;;;8.02;6.45;;;;;;;19.93;89.00;150076.69;5124904;27;20666;-52
2023/05/05 06:56:56;;;;;;;8.32;6.95;;;;;;;20.39;87.38;150189.44;5116518;27;20207;-51
2023/05/05 06:59:23;;;;;;;9.13;7.35;;;;;;;20.76;85.65;150283.19;5123766;27;20190;-52
2023/05/05 07:01:51;;;;;;;6.57;6.18;;;;;;;21.34;78.82;150427.66;5130685;27;20197;-53
2023/05/05 07:04:18;;;;;;;6.55;6.05;;;;;;;21.84;76.35;150551.88;5128343;27;20230;-52
2023/05/05 07:06:45;;;;;;;7.75;6.40;;;;;;;22.17;74.33;150634.34;5130683;27;20243;-53
2023/05/05 07:09:15;;;;;;;7.47;5.60;;;;;;;22.71;71.23;150771.31;5131161;27;20685;-52
2023/05/05 07:11:42;;;;;;;6.18;5.78;;;;;;;23.08;68.93;150862.72;5130734;27;20550;-53
2023/05/05 07:14:09;;;;;;;6.32;5.72;;;;;;;23.52;66.84;150974.44;5131072;27;20677;-54
2023/05/05 07:16:36;;;;;;;7.20;6.70;;;;;;;24.26;64.95;151158.59;5130088;27;25078;-56
2023/05/05 07:19:05;;;;;;;8.07;6.10;;;;;;;24.81;63.11;151295.78;5130524;27;20733;-53
2023/05/05 07:21:34;;;;;;;6.43;5.20;;;;;;;24.60;62.84;151243.69;5124990;27;25075;-53
2023/05/05 07:24:03;;;;;;;6.03;5.60;;;;;;;24.19;63.43;151140.75;5130596;27;20208;-53
2023/05/05 07:26:32;;;;;;;10.57;5.75;;;;;;;24.78;62.94;151288.13;5130755;27;20215;-53
2023/05/05 07:28:59;;;;;;;5.97;5.40;;;;;;;24.97;62.17;151336.44;5130138;27;25059;-54
2023/05/05 07:31:27;;;;;;;7.00;6.40;;;;;;;25.48;60.35;151463.53;5130965;27;20211;-53
2023/05/05 07:33:54;;;;;;;13.23;5.97;;;;;;;26.44;57.54;151703.88;5124267;27;20277;-53
2023/05/05 07:36:21;;;;;;;9.73;6.40;;;;;;;26.79;54.31;151792.91;5117783;27;20735;-54
2023/05/05 07:38:49;;;;;;;6.95;6.20;;;;;;;27.41;52.76;151949.44;5111670;28;25067;-53
2023/05/05 07:41:17;;;;;;;13.30;9.65;;;;;;;27.08;51.64;151865.47;5119875;27;20199;-53
2023/05/05 07:43:46;;;;;;;6.90;6.30;;;;;;;26.37;52.83;151687.34;5110296;28;20671;-54
2023/05/05 07:46:13;;;;;;;7.30;6.72;;;;;;;26.13;53.58;151626.28;5110089;28;20199;-54
2023/05/05 07:48:40;;;;;;;7.70;6.97;;;;;;;25.66;54.34;151510.59;5110274;28;20222;-55
2023/05/05 07:51:08;;;;;;;7.15;6.28;;;;;;;25.52;55.22;151473.66;5115888;27;20198;-54
2023/05/05 07:57:48;;;;;;;9.95;7.43;;;;;;;25.64;55.77;151504.22;5107456;28;20638;-54
2023/05/05 08:03:43;;;;;;;8.32;6.45;;;;;;;28.04;49.70;152106.00;5127070;27;20202;-57
2023/05/05 08:06:45;;;;;;;6.90;6.32;;;;;;;27.39;50.94;151943.06;5129912;27;20189;-53
2023/05/05 08:09:45;;;;;;;8.13;6.88;;;;;;;27.14;51.38;151880.72;5089568;28;20227;-52
2023/05/05 08:13:02;;;;;;;;;;;;;;;;;;;;;
2023/05/05 08:27:53;;;;;;;6.43;5.97;;;;;;;28.04;49.62;152107.28;5088155;28;20207;-52
2023/05/05 08:30:48;;;;;;;6.10;5.55;;;;;;;28.14;49.46;152132.72;5092765;28;20695;-53
2023/05/05 08:33:45;;;;;;;6.93;6.32;;;;;;;27.60;51.31;151995.28;5087611;28;20246;-52
2023/05/05 08:36:45;;;;;;;6.28;5.80;;;;;;;27.86;50.19;152061.47;5093395;28;20199;-53
2023/05/05 08:39:54;;;;;;;7.05;6.32;;;;;;;27.01;52.19;151848.91;5093305;28;20195;-53
2023/05/05 08:42:55;;;;;;;8.15;6.13;;;;;;;26.52;53.46;151725.53;5088847;28;20199;-51
2023/05/05 08:55:02;;;;;;;5.88;5.38;;;;;;;26.97;52.55;151837.50;5090724;28;20210;-52
2023/05/05 09:07:14;;;;;;;4.95;4.63;;;;;;;27.23;51.17;151902.34;5091130;28;20222;-54
2023/05/05 09:13:16;;;;;;;;;;;;;;;;;;;;;
2023/05/05 09:19:20;;;;;;;5.25;4.63;;;;;;;27.66;49.99;152010.53;5088715;28;20238;-53
2023/05/05 09:22:20;;;;;;;7.32;5.30;;;;;;;27.65;49.19;152008.03;5092473;28;20196;-52
2023/05/05 09:31:22;;;;;;;4.95;4.55;;;;;;;25.32;54.40;151424.13;5092259;28;20226;-54
2023/05/05 09:34:24;;;;;;;4.70;4.43;;;;;;;25.07;54.59;151361.84;5089541;28;20270;-53
2023/05/05 09:37:48;;;;;;;5.32;4.70;;;;;;;25.03;54.85;151351.72;5091835;28;20732;-54
2023/05/05 09:43:55;;;;;;;5.45;5.15;;;;;;;25.23;54.96;151401.25;5091438;28;20192;-54
2023/05/05 09:46:23;;;;;;;5.78;4.90;;;;;;;25.51;55.24;151471.13;5091790;28;20652;-53
2023/05/05 09:48:50;;;;;;;5.32;4.93;;;;;;;25.93;54.03;151577.97;5090420;28;20191;-52
2023/05/05 09:51:30;;;;;;;5.85;5.28;;;;;;;25.94;52.60;151580.53;5091545;28;20206;-52
2023/05/05 09:54:29;;;;;;;6.13;5.57;;;;;;;25.71;53.52;151522.03;5091745;28;20198;-53
2023/05/05 09:57:24;;;;;;;5.22;4.90;;;;;;;25.50;54.00;151468.63;5071006;28;20224;-53
2023/05/05 10:00:06;;;;;;;5.05;4.75;;;;;;;25.24;54.59;151403.81;5079829;28;20215;-52
2023/05/05 10:02:40;;;;;;;5.07;4.68;;;;;;;24.83;54.60;151300.88;5088157;28;20659;-54
2023/05/05 10:05:23;;;;;;;4.85;4.45;;;;;;;24.96;54.29;151335.16;5088232;28;20194;-53
2023/05/05 10:08:28;;;;;;;4.95;4.65;;;;;;;25.12;54.40;151374.56;5094593;27;20310;-53
2023/05/05 10:11:17;;;;;;;5.05;4.75;;;;;;;24.65;55.50;151255.09;5110019;28;20222;-53
2023/05/05 10:14:17;;;;;;;5.97;4.53;;;;;;;24.32;56.30;151173.81;5111801;28;20202;-53
2023/05/05 10:17:21;;;;;;;5.13;4.72;;;;;;;24.04;57.05;151102.69;5111560;28;20190;-54
2023/05/05 10:20:17;;;;;;;5.55;5.25;;;;;;;23.31;57.62;150919.84;5111512;28;20255;-51
2023/05/05 10:23:19;;;;;;;13.40;6.40;;;;;;;22.98;59.33;150838.63;5111389;28;20268;-51
2023/05/05 10:26:04;;;;;;;5.75;5.25;;;;;;;23.26;57.67;150907.13;5109165;28;20203;-52
2023/05/05 10:28:47;;;;;;;6.22;5.20;;;;;;;23.59;57.23;150989.72;5127488;27;20226;-52
2023/05/05 10:31:24;;;;;;;5.88;5.30;;;;;;;24.03;55.70;151100.16;5128854;27;20200;-55
2023/05/05 10:34:08;;;;;;;5.03;4.47;;;;;;;24.11;55.79;151120.44;5123901;27;20287;-53
2023/05/05 10:36:50;;;;;;;5.18;4.88;;;;;;;23.80;56.61;151044.28;5128572;27;20190;-53
2023/05/05 10:39:39;;;;;;;5.55;5.05;;;;;;;23.82;56.87;151048.06;5129348;27;20190;-53
2023/05/05 10:42:35;;;;;;;5.15;4.75;;;;;;;24.08;56.49;151112.81;5129683;27;20280;-53
2023/05/05 10:45:32;;;;;;;6.57;5.10;;;;;;;24.25;55.35;151156.06;5130750;27;20193;-52
2023/05/05 10:48:22;;;;;;;5.40;4.90;;;;;;;24.25;55.20;151156.06;5131203;27;20212;-54
2023/05/05 10:50:59;;;;;;;7.25;5.35;;;;;;;24.31;55.60;151170.00;5130594;27;20221;-54
2023/05/05 10:56:49;;;;;;;5.30;4.90;;;;;;;24.75;54.24;151281.78;5131242;27;20280;-53
2023/05/05 11:02:51;;;;;;;31.95;7.30;;;;;;;24.63;54.11;151251.28;5131548;27;20197;-53
2023/05/05 11:05:25;;;;;;;7.95;5.82;;;;;;;24.52;56.15;151224.63;5130322;27;20286;-53
2023/05/05 11:08:21;;;;;;;9.10;5.35;;;;;;;24.05;56.08;151106.47;5129236;27;20234;-54
2023/05/05 11:11:09;;;;;;;5.65;5.15;;;;;;;23.75;56.88;151031.56;5130638;27;20244;-51
2023/05/05 11:13:56;;;;;;;21.02;7.18;;;;;;;23.99;56.32;151091.25;5130802;27;20193;-52
2023/05/05 11:16:55;;;;;;;13.02;5.90;;;;;;;24.12;56.03;151124.25;5131088;27;20190;-54
2023/05/05 11:20:10;;;;;;;9.68;5.60;;;;;;;24.18;55.84;151138.22;5130571;27;20201;-53
2023/05/05 11:23:23;;;;;;;5.72;5.30;;;;;;;24.11;55.21;151120.44;5128967;27;20198;-52
2023/05/05 11:26:08;;;;;;;5.78;5.15;;;;;;;23.67;56.54;151011.28;5129905;27;20289;-53
2023/05/05 11:29:26;;;;;;;31.70;7.07;;;;;;;23.65;56.47;151006.19;5126287;27;20189;-53
2023/05/05 11:32:32;;;;;;;11.05;5.15;;;;;;;23.66;56.67;151008.72;5130097;27;20190;-53
2023/05/05 11:41:32;;;;;;;5.88;5.07;;;;;;;23.34;57.30;150928.72;5130155;27;20198;-53
2023/05/05 11:44:51;;;;;;;6.28;5.18;;;;;;;23.24;57.90;150902.09;5118624;27;20290;-54
2023/05/05 11:47:53;;;;;;;5.28;4.43;;;;;;;22.91;58.38;150819.63;5130125;27;20272;-52
2023/05/05 11:51:01;;;;;;;4.85;4.55;;;;;;;22.86;58.57;150808.19;5129153;27;20253;-53
2023/05/05 11:54:08;;;;;;;5.90;4.57;;;;;;;22.83;58.90;150800.53;5130601;27;20201;-53
2023/05/05 11:57:19;;;;;;;5.43;5.13;;;;;;;22.76;59.50;150784.06;5129987;27;20282;-52
2023/05/05 12:00:11;;;;;;;6.97;4.85;;;;;;;22.60;59.60;150742.16;5129274;27;20703;-54
2023/05/05 12:03:11;;;;;;;10.60;9.57;;;;;;;22.50;60.07;150716.78;5128710;27;20276;-52
2023/05/05 12:09:07;;;;;;;5.40;5.00;;;;;;;22.01;62.29;150595.03;5124435;28;20282;-53
2023/05/05 12:15:04;;;;;;;6.47;4.90;;;;;;;22.28;61.93;150662.25;5128731;28;20228;-54
2023/05/05 12:18:00;;;;;;;5.47;5.00;;;;;;;22.20;61.62;150641.97;5130020;28;20265;-53
2023/05/05 12:21:43;;;;;;;;;;;;;;;;;;;;;
2023/05/05 12:25:12;;;;;;;5.65;5.03;;;;;;;22.36;60.84;150682.53;5079869;28;20214;-52
2023/05/05 12:28:07;;;;;;;28.90;7.97;;;;;;;22.32;61.80;150673.69;5128388;28;20599;-53
2023/05/05 12:31:04;;;;;;;44.05;8.52;;;;;;;22.31;61.77;150671.13;5110430;28;20649;-52
2023/05/05 12:34:21;;;;;;;6.25;5.53;;;;;;;22.08;62.41;150612.81;5115957;28;20218;-52
2023/05/05 12:37:15;;;;;;;10.60;5.70;;;;;;;22.12;62.67;150622.97;5129623;28;20194;-53
2023/05/05 12:40:09;;;;;;;12.13;5.47;;;;;;;22.32;62.52;150673.69;5129700;28;20196;-51
2023/05/05 12:52:24;;;;;;;26.65;5.85;;;;;;;22.89;60.30;150815.81;5128307;28;20253;-51
2023/05/05 12:55:29;;;;;;;8.82;5.03;;;;;;;22.94;60.64;150828.47;5126169;28;20198;-53
2023/05/05 12:58:31;;;;;;;5.88;5.15;;;;;;;22.92;60.91;150822.09;5124569;28;20600;-52
2023/05/05 13:01:58;;;;;;;5.78;5.38;;;;;;;22.67;60.26;150759.94;5123560;28;20647;-50
2023/05/05 13:08:26;;;;;;;22.90;5.90;;;;;;;22.38;61.64;150688.88;5128709;28;20229;-50
2023/05/05 13:11:40;;;;;;;;;;;;;;;;;;;;;
2023/05/05 13:17:46;;;;;;;5.18;4.88;;;;;;;21.91;63.91;150569.63;5132099;27;20230;-50
2023/05/05 13:24:17;;;;;;;5.97;4.93;;;;;;;21.74;64.19;150529.06;5129129;27;20202;-52
2023/05/05 13:27:13;;;;;;;5.50;5.20;;;;;;;21.70;64.59;150518.91;5131257;27;20197;-52
2023/05/05 13:36:36;;;;;;;5.80;5.30;;;;;;;21.66;65.71;150508.81;5128614;27;20528;-51
2023/05/05 13:43:04;;;;;;;15.27;5.78;;;;;;;21.66;66.20;150507.53;5132322;27;20225;-54
2023/05/05 13:46:03;;;;;;;5.38;4.90;;;;;;;21.49;65.95;150465.69;5131198;27;20221;-53
2023/05/05 13:51:57;;;;;;;5.97;5.35;;;;;;;21.38;67.25;150437.78;5122487;27;20290;-52
2023/05/05 13:57:56;;;;;;;12.75;5.38;;;;;;;21.33;67.54;150425.16;5129487;27;20686;-53
2023/05/05 14:00:58;;;;;;;6.57;4.80;;;;;;;21.29;66.72;150416.28;5128986;27;20194;-52
2023/05/05 14:03:49;;;;;;;6.95;5.13;;;;;;;21.34;66.67;150427.66;5130305;27;20201;-53
2023/05/05 14:06:46;;;;;;;6.35;5.72;;;;;;;21.32;66.65;150422.63;5131205;27;20230;-53
2023/05/05 14:09:48;;;;;;;5.75;4.25;;;;;;;21.42;63.87;150447.97;5132331;27;20615;-52
2023/05/05 14:12:53;;;;;;;18.23;5.32;;;;;;;21.48;63.95;150461.88;5131562;27;20228;-52
2023/05/05 14:15:49;;;;;;;11.68;5.40;;;;;;;21.59;64.86;150489.75;5130067;27;20198;-55
2023/05/05 14:18:47;;;;;;;4.95;4.45;;;;;;;21.50;66.41;150468.22;5132017;27;20285;-52
2023/05/05 14:22:06;;;;;;;;;;;;;;;;;;;;;
2023/05/05 14:28:04;;;;;;;8.13;4.50;;;;;;;21.68;64.53;150513.84;5124710;27;20206;-52
2023/05/05 14:30:53;;;;;;;34.75;5.90;;;;;;;21.61;63.01;150496.09;5132162;27;20213;-57
2023/05/05 14:33:53;;;;;;;7.85;5.80;;;;;;;21.63;62.96;150501.19;5131796;27;20691;-53
2023/05/05 14:36:48;;;;;;;12.18;5.20;;;;;;;21.76;63.43;150531.63;5131979;27;20688;-51
2023/05/05 14:39:47;;;;;;;5.32;4.93;;;;;;;21.81;64.26;150544.28;5131992;27;20198;-52
2023/05/05 14:42:49;;;;;;;4.82;4.50;;;;;;;21.72;64.17;150522.72;5132014;27;20582;-54
2023/05/05 15:01:40;;;;;;;4.68;4.28;;;;;;;21.28;65.28;150412.47;5130499;27;20189;-53
2023/05/05 15:05:03;;;;;;;;;;;;;;;;;;;;;
2023/05/05 15:08:17;;;;;;;11.57;5.18;;;;;;;21.33;65.64;150425.16;5128411;27;20202;-52
2023/05/05 15:11:12;;;;;;;4.38;4.07;;;;;;;21.27;66.14;150409.91;5090346;28;20655;-51
2023/05/05 15:14:14;;;;;;;6.88;4.03;;;;;;;21.15;66.71;150379.44;5085839;28;20207;-51
2023/05/05 15:17:17;;;;;;;5.22;4.72;;;;;;;21.07;67.54;150360.47;5084311;28;20235;-50
2023/05/05 15:20:30;;;;;;;4.85;4.35;;;;;;;20.94;67.80;150328.78;5067501;28;20207;-52
2023/05/05 15:26:36;;;;;;;22.48;5.40;;;;;;;20.71;69.61;150270.50;5068954;28;20252;-51
2023/05/05 15:42:30;;;;;;;6.18;5.60;;;;;;;20.60;71.90;150243.91;5067049;28;20211;-51
2023/05/05 15:45:37;;;;;;;5.55;5.10;;;;;;;20.66;72.62;150257.81;5069738;28;20202;-52
2023/05/05 15:48:46;;;;;;;6.47;4.78;;;;;;;20.66;73.59;150259.06;5067484;28;20227;-52
2023/05/05 15:51:32;;;;;;;6.32;5.30;;;;;;;20.67;74.29;150260.34;5078409;28;20589;-51
2023/05/05 15:54:47;;;;;;;7.53;6.30;;;;;;;20.50;75.22;150218.56;5087373;28;25098;-51
2023/05/05 15:57:30;;;;;;;5.70;5.20;;;;;;;20.50;75.99;150218.56;5089076;28;25072;-49
2023/05/05 16:00:09;;;;;;;5.38;4.88;;;;;;;20.46;76.43;150207.16;5089032;28;20591;-50
2023/05/05 16:03:07;;;;;;;5.60;5.10;;;;;;;20.49;76.48;150216.03;5089441;28;20672;-51
2023/05/05 16:06:02;;;;;;;5.90;5.50;;;;;;;20.45;76.92;150204.59;5084961;28;20728;-51
2023/05/05 16:08:46;;;;;;;7.03;6.18;;;;;;;20.37;77.04;150185.63;5102634;28;25083;-52
2023/05/05 16:11:56;;;;;;;5.18;4.88;;;;;;;20.25;77.64;150156.44;5127768;28;20181;-51
2023/05/05 16:15:02;;;;;;;5.85;5.20;;;;;;;20.12;78.47;150123.50;5123430;28;20269;-52
2023/05/05 16:17:52;;;;;;;5.95;5.35;;;;;;;20.04;79.34;150103.25;5129628;28;20202;-52
2023/05/05 16:20:40;;;;;;;5.72;4.80;;;;;;;20.02;79.20;150096.94;5129592;28;20258;-53
2023/05/05 16:23:24;;;;;;;4.93;4.47;;;;;;;19.92;79.75;150074.13;5129362;28;20198;-52
2023/05/05 16:26:03;;;;;;;5.10;4.70;;;;;;;19.79;80.62;150039.94;5124445;28;20653;-53
2023/05/05 16:28:38;;;;;;;5.20;4.90;;;;;;;19.61;82.72;149994.38;5128585;28;20229;-52
2023/05/05 16:31:16;;;;;;;9.38;5.05;;;;;;;19.60;83.63;149993.13;5129000;28;20313;-54
2023/05/05 16:33:45;;;;;;;4.93;4.63;;;;;;;19.62;83.88;149996.94;5129089;28;20198;-50
2023/05/05 16:36:37;;;;;;;5.38;4.97;;;;;;;19.57;83.24;149985.50;5128562;28;20204;-53
2023/05/05 16:39:43;;;;;;;;;;;;;;;;;;;;;
2023/05/05 16:42:12;;;;;;;5.25;4.85;;;;;;;19.44;83.12;149953.81;5111430;28;20606;-53
2023/05/05 16:44:46;;;;;;;5.45;4.95;;;;;;;19.45;82.94;149956.34;5107811;28;20225;-50
2023/05/05 16:47:29;;;;;;;6.90;5.25;;;;;;;19.39;83.77;149941.19;5106047;28;20252;-51
2023/05/05 16:50:07;;;;;;;5.82;5.43;;;;;;;19.39;83.68;149941.19;5110245;28;20214;-50
2023/05/05 16:52:43;;;;;;;5.53;5.03;;;;;;;19.37;83.39;149936.13;5110724;28;20701;-50
2023/05/05 16:55:25;;;;;;;8.05;5.93;;;;;;;19.22;82.81;149899.41;5110018;28;20894;-50
2023/05/05 16:58:04;;;;;;;6.70;6.10;;;;;;;19.21;82.50;149895.59;5109929;28;20303;-49
2023/05/05 17:01:00;;;;;;;5.47;5.05;;;;;;;19.08;83.17;149863.94;5119519;27;20225;-49
2023/05/05 17:04:14;;;;;;;;;;;;;;;;;;;;;
2023/05/05 17:12:49;;;;;;;4.45;4.15;;;;;;;18.92;82.82;149823.47;5127661;27;20214;-50
2023/05/05 17:15:43;;;;;;;4.97;4.57;;;;;;;18.91;84.25;149819.69;5131307;27;20290;-53
2023/05/05 17:18:48;;;;;;;5.47;4.47;;;;;;;18.94;83.93;149828.56;5129878;27;20194;-53